createdAt,value
2023-05-19T00:00:28.591Z,9.41
2023-05-19T00:01:39.044Z,9.46
2023-05-19T00:02:28.794Z,9.46
2023-05-19T00:03:28.780Z,9.59
2023-05-19T00:05:55.372Z,9.55
2023-05-19T00:06:56.025Z,9.46
2023-05-19T00:09:22.207Z,9.36
2023-05-19T00:11:49.234Z,9.39
2023-05-19T00:12:49.406Z,9.43
2023-05-19T00:13:52.689Z,9.44
2023-05-19T00:14:51.227Z,9.37
2023-05-19T00:15:50.975Z,9.48
2023-05-19T00:17:28.033Z,9.39
2023-05-19T00:17:51.868Z,9.19
2023-05-19T00:18:51.292Z,9.29
2023-05-19T00:20:30.859Z,9.40
2023-05-19T00:20:50.924Z,9.37
2023-05-19T00:21:50.556Z,9.34
2023-05-19T00:23:37.437Z,9.39
2023-05-19T00:24:56.194Z,9.29
2023-05-19T00:26:56.809Z,9.48
2023-05-19T00:29:56.331Z,9.48
2023-05-19T00:31:00.740Z,9.36
2023-05-19T00:32:17.361Z,9.36
2023-05-19T00:32:59.550Z,9.44
2023-05-19T00:34:08.423Z,9.36
2023-05-19T00:37:28.893Z,9.34
2023-05-19T00:38:26.441Z,9.26
2023-05-19T00:39:23.770Z,9.40
2023-05-19T00:40:56.573Z,9.34
2023-05-19T00:41:24.618Z,9.25
2023-05-19T00:42:23.397Z,9.26
2023-05-19T00:43:23.778Z,9.26
2023-05-19T00:46:56.837Z,9.32
2023-05-19T00:47:50.148Z,9.29
2023-05-19T00:48:28.154Z,9.34
2023-05-19T00:48:59.293Z,9.26
2023-05-19T00:49:58.725Z,9.21
2023-05-19T00:51:05.849Z,9.14
2023-05-19T00:52:01.141Z,9.04
2023-05-19T00:53:35.016Z,8.94
2023-05-19T00:54:34.403Z,8.95
2023-05-19T00:55:44.204Z,8.79
2023-05-19T00:56:15.888Z,8.82
2023-05-19T00:56:57.745Z,8.64
2023-05-19T00:57:57.463Z,8.69
2023-05-19T00:59:29.273Z,8.56
2023-05-19T01:00:30.618Z,8.38
2023-05-19T01:01:38.237Z,8.45
2023-05-19T01:02:03.455Z,8.38
2023-05-19T01:04:55.204Z,8.10
2023-05-19T01:05:55.395Z,8.10
2023-05-19T01:06:54.790Z,8.05
2023-05-19T01:07:54.881Z,7.98
2023-05-19T01:08:54.752Z,7.82
2023-05-19T01:09:56.947Z,7.85
2023-05-19T01:11:04.399Z,7.88
2023-05-19T01:11:58.068Z,7.75
2023-05-19T01:12:56.380Z,7.73
2023-05-19T01:13:56.473Z,7.69
2023-05-19T01:14:56.395Z,7.72
2023-05-19T01:15:56.429Z,7.56
2023-05-19T01:16:56.573Z,7.67
2023-05-19T01:18:31.188Z,7.56
2023-05-19T01:18:57.987Z,7.57
2023-05-19T01:22:04.653Z,7.63
2023-05-19T01:23:04.559Z,7.63
2023-05-19T01:24:40.249Z,7.63
2023-05-19T01:25:07.017Z,7.66
2023-05-19T01:26:06.759Z,7.73
2023-05-19T01:27:06.549Z,7.69
2023-05-19T01:28:06.008Z,7.75
2023-05-19T01:29:07.150Z,7.67
2023-05-19T01:30:07.449Z,7.67
2023-05-19T01:31:06.366Z,7.80
2023-05-19T01:32:06.914Z,7.79
2023-05-19T01:33:06.790Z,7.80
2023-05-19T01:34:05.921Z,7.80
2023-05-19T01:35:07.839Z,7.87
2023-05-19T01:36:08.635Z,7.90
2023-05-19T01:37:07.112Z,7.93
2023-05-19T01:38:05.435Z,7.95
2023-05-19T01:39:05.681Z,7.88
2023-05-19T01:40:06.006Z,7.82
2023-05-19T01:41:05.995Z,7.83
2023-05-19T01:42:05.899Z,7.70
2023-05-19T01:43:05.593Z,7.57
2023-05-19T01:44:05.698Z,7.58
2023-05-19T01:45:06.079Z,7.57
2023-05-19T01:46:05.940Z,7.51
2023-05-19T01:47:06.642Z,7.54
2023-05-19T01:48:07.775Z,7.48
2023-05-19T01:49:06.134Z,7.61
2023-05-19T01:50:08.351Z,7.50
2023-05-19T01:51:06.471Z,7.63
2023-05-19T01:52:06.858Z,7.66
2023-05-19T01:53:06.067Z,7.70
2023-05-19T01:54:06.379Z,7.58
2023-05-19T01:55:06.465Z,7.76
2023-05-19T01:56:06.639Z,7.75
2023-05-19T01:57:05.457Z,7.75
2023-05-19T01:58:05.820Z,7.80
2023-05-19T01:59:05.810Z,7.82
2023-05-19T02:00:05.354Z,7.75
2023-05-19T02:01:05.954Z,7.66
2023-05-19T02:02:05.751Z,7.57
2023-05-19T02:03:05.446Z,7.48
2023-05-19T02:04:05.670Z,7.48
2023-05-19T02:05:05.966Z,7.35
2023-05-19T02:06:05.829Z,7.28
2023-05-19T02:07:06.459Z,7.28
2023-05-19T02:08:05.571Z,7.40
2023-05-19T02:09:05.385Z,7.31
2023-05-19T02:10:05.288Z,7.18
2023-05-19T02:11:05.512Z,7.06
2023-05-19T02:12:05.191Z,7.05
2023-05-19T02:13:05.152Z,7.11
2023-05-19T02:14:05.176Z,6.92
2023-05-19T02:15:05.173Z,6.95
2023-05-19T02:16:05.367Z,6.95
2023-05-19T02:17:05.627Z,6.88
2023-05-19T02:18:06.170Z,7.00
2023-05-19T02:19:05.455Z,6.97
2023-05-19T02:20:05.501Z,6.97
2023-05-19T02:21:05.297Z,6.92
2023-05-19T02:22:05.039Z,6.93
2023-05-19T02:23:05.007Z,6.93
2023-05-19T02:24:38.713Z,7.00
2023-05-19T02:25:05.754Z,6.95
2023-05-19T02:26:05.341Z,6.92
2023-05-19T02:27:05.169Z,6.96
2023-05-19T02:28:05.220Z,6.89
2023-05-19T02:29:05.112Z,6.84
2023-05-19T02:30:05.583Z,6.78
2023-05-19T02:31:05.167Z,6.82
2023-05-19T02:32:05.016Z,6.74
2023-05-19T02:33:04.957Z,6.69
2023-05-19T02:34:04.883Z,6.63
2023-05-19T02:35:05.016Z,6.56
2023-05-19T02:36:04.893Z,6.60
2023-05-19T02:37:05.004Z,6.60
2023-05-19T02:38:04.941Z,6.46
2023-05-19T02:39:04.890Z,6.45
2023-05-19T02:40:04.958Z,6.48
2023-05-19T02:41:05.127Z,6.42
2023-05-19T02:42:04.997Z,6.35
2023-05-19T02:43:04.779Z,6.38
2023-05-19T02:44:04.799Z,6.41
2023-05-19T02:45:04.717Z,6.38
2023-05-19T02:46:04.980Z,6.31
2023-05-19T02:47:04.685Z,6.41
2023-05-19T02:48:04.817Z,6.17
2023-05-19T02:49:09.368Z,6.24
2023-05-19T02:50:04.735Z,6.19
2023-05-19T02:51:04.654Z,6.19
2023-05-19T02:52:04.717Z,6.09
2023-05-19T02:53:04.898Z,6.22
2023-05-19T02:54:04.917Z,6.16
2023-05-19T02:55:04.934Z,6.08
2023-05-19T02:56:04.788Z,6.11
2023-05-19T02:57:04.806Z,6.14
2023-05-19T02:58:04.637Z,6.12
2023-05-19T02:59:04.682Z,6.14
2023-05-19T03:00:04.790Z,6.08
2023-05-19T03:01:04.669Z,6.14
2023-05-19T03:02:04.736Z,6.28
2023-05-19T03:03:04.915Z,6.08
2023-05-19T03:04:05.179Z,6.20
2023-05-19T03:05:04.691Z,6.24
2023-05-19T03:06:04.774Z,6.07
2023-05-19T03:07:04.631Z,6.11
2023-05-19T03:08:04.602Z,6.20
2023-05-19T03:09:04.816Z,6.22
2023-05-19T03:10:04.829Z,6.22
2023-05-19T03:11:04.732Z,6.14
2023-05-19T03:12:04.988Z,6.11
2023-05-19T03:13:04.654Z,6.14
2023-05-19T03:14:04.553Z,6.08
2023-05-19T03:15:04.770Z,6.07
2023-05-19T03:16:04.645Z,5.91
2023-05-19T03:17:04.659Z,5.89
2023-05-19T03:18:04.896Z,5.83
2023-05-19T03:19:04.587Z,5.82
2023-05-19T03:20:04.410Z,5.89
2023-05-19T03:21:04.528Z,5.97
2023-05-19T03:22:04.562Z,6.04
2023-05-19T03:23:04.687Z,5.94
2023-05-19T03:24:04.404Z,5.90
2023-05-19T03:25:04.420Z,5.99
2023-05-19T03:26:04.556Z,6.14
2023-05-19T03:27:04.636Z,6.19
2023-05-19T03:28:04.678Z,6.04
2023-05-19T03:29:04.376Z,6.14
2023-05-19T03:30:06.510Z,6.09
2023-05-19T03:31:04.614Z,6.01
2023-05-19T03:32:04.885Z,6.02
2023-05-19T03:33:04.649Z,6.05
2023-05-19T03:34:04.785Z,6.04
2023-05-19T03:35:04.567Z,5.98
2023-05-19T03:36:04.268Z,5.98
2023-05-19T03:37:04.237Z,5.90
2023-05-19T03:38:04.329Z,5.94
2023-05-19T03:39:04.252Z,5.97
2023-05-19T03:40:04.264Z,5.98
2023-05-19T03:41:04.275Z,5.90
2023-05-19T03:42:04.577Z,5.90
2023-05-19T03:43:04.456Z,5.99
2023-05-19T03:44:04.909Z,5.89
2023-05-19T03:45:04.374Z,5.91
2023-05-19T03:46:04.607Z,5.98
2023-05-19T03:47:04.463Z,5.86
2023-05-19T03:48:04.415Z,5.94
2023-05-19T03:49:04.284Z,5.79
2023-05-19T03:50:04.258Z,5.94
2023-05-19T03:51:04.436Z,5.87
2023-05-19T03:52:04.355Z,5.87
2023-05-19T03:53:04.408Z,5.91
2023-05-19T03:54:04.238Z,5.98
2023-05-19T03:55:04.278Z,6.02
2023-05-19T03:56:04.232Z,5.97
2023-05-19T03:57:04.337Z,5.94
2023-05-19T03:58:04.244Z,6.09
2023-05-19T03:59:04.341Z,6.14
2023-05-19T04:00:04.214Z,6.14
2023-05-19T04:01:04.313Z,6.22
2023-05-19T04:02:04.247Z,6.26
2023-05-19T04:03:04.209Z,6.17
2023-05-19T04:04:04.350Z,6.26
2023-05-19T04:05:04.226Z,6.39
2023-05-19T04:06:04.381Z,6.36
2023-05-19T04:07:04.194Z,6.38
2023-05-19T04:08:04.167Z,6.41
2023-05-19T04:09:04.160Z,6.46
2023-05-19T04:10:04.178Z,6.48
2023-05-19T04:11:04.130Z,6.46
2023-05-19T04:12:04.198Z,6.48
2023-05-19T04:13:04.355Z,6.56
2023-05-19T04:14:03.980Z,6.48
2023-05-19T04:15:04.204Z,6.49
2023-05-19T04:16:04.141Z,6.51
2023-05-19T04:17:04.021Z,6.59
2023-05-19T04:18:03.962Z,6.52
2023-05-19T04:19:04.130Z,6.66
2023-05-19T04:20:04.102Z,6.59
2023-05-19T04:21:04.126Z,6.64
2023-05-19T04:22:04.117Z,6.64
2023-05-19T04:23:03.926Z,6.64
2023-05-19T04:24:04.001Z,6.51
2023-05-19T04:25:03.974Z,6.46
2023-05-19T04:26:03.916Z,6.44
2023-05-19T04:27:03.847Z,6.38
2023-05-19T04:28:03.986Z,6.33
2023-05-19T04:29:03.836Z,6.51
2023-05-19T04:30:04.028Z,6.46
2023-05-19T04:31:04.064Z,6.56
2023-05-19T04:32:04.131Z,6.60
2023-05-19T04:33:03.940Z,6.62
2023-05-19T04:34:04.028Z,6.66
2023-05-19T04:35:03.729Z,6.63
2023-05-19T04:36:03.964Z,6.72
2023-05-19T04:37:03.857Z,6.69
2023-05-19T04:38:03.689Z,6.74
2023-05-19T04:39:03.754Z,6.77
2023-05-19T04:40:04.023Z,6.72
2023-05-19T04:41:04.000Z,6.81
2023-05-19T04:42:03.712Z,6.75
2023-05-19T04:43:03.665Z,6.74
2023-05-19T04:44:03.737Z,6.64
2023-05-19T04:45:03.725Z,6.69
2023-05-19T04:46:03.706Z,6.66
2023-05-19T04:47:03.785Z,6.72
2023-05-19T04:48:04.074Z,6.69
2023-05-19T04:49:03.882Z,6.67
2023-05-19T04:50:03.683Z,6.69
2023-05-19T04:51:03.787Z,6.72
2023-05-19T04:52:03.611Z,6.72
2023-05-19T04:53:03.594Z,6.64
2023-05-19T04:54:03.545Z,6.77
2023-05-19T04:55:03.554Z,6.77
2023-05-19T04:56:03.735Z,6.72
2023-05-19T04:57:03.511Z,6.78
2023-05-19T04:58:03.579Z,6.84
2023-05-19T04:59:03.851Z,6.74
2023-05-19T05:00:03.688Z,6.89
2023-05-19T05:01:03.759Z,6.96
2023-05-19T05:02:03.757Z,6.97
2023-05-19T05:03:05.010Z,7.00
2023-05-19T05:04:04.138Z,7.13
2023-05-19T05:05:03.990Z,7.11
2023-05-19T05:06:03.528Z,7.13
2023-05-19T05:07:03.523Z,7.07
2023-05-19T05:08:04.124Z,7.11
2023-05-19T05:09:03.609Z,7.10
2023-05-19T05:10:03.464Z,7.03
2023-05-19T05:11:03.819Z,7.10
2023-05-19T05:12:03.524Z,7.17
2023-05-19T05:13:37.631Z,7.14
2023-05-19T05:14:04.670Z,7.23
2023-05-19T05:15:03.535Z,7.20
2023-05-19T05:16:03.282Z,7.14
2023-05-19T05:17:03.371Z,7.06
2023-05-19T05:18:03.415Z,7.00
2023-05-19T05:19:03.468Z,6.95
2023-05-19T05:20:03.186Z,6.79
2023-05-19T05:21:03.946Z,6.89
2023-05-19T05:22:03.378Z,6.92
2023-05-19T05:23:03.400Z,6.96
2023-05-19T05:24:03.441Z,6.99
2023-05-19T05:25:03.577Z,7.03
2023-05-19T05:26:03.620Z,7.15
2023-05-19T05:27:03.489Z,7.05
2023-05-19T05:28:03.342Z,6.96
2023-05-19T05:29:03.271Z,7.00
2023-05-19T05:30:03.261Z,6.88
2023-05-19T05:31:03.315Z,6.88
2023-05-19T05:32:03.484Z,6.92
2023-05-19T05:33:03.492Z,6.92
2023-05-19T05:34:03.724Z,6.99
2023-05-19T05:35:03.190Z,6.95
2023-05-19T05:36:03.220Z,6.96
2023-05-19T05:37:03.197Z,7.00
2023-05-19T05:38:03.214Z,6.96
2023-05-19T05:39:03.165Z,7.03
2023-05-19T05:40:03.102Z,7.13
2023-05-19T05:41:03.126Z,7.13
2023-05-19T05:42:03.041Z,7.29
2023-05-19T05:43:03.158Z,7.25
2023-05-19T05:44:03.299Z,7.38
2023-05-19T05:45:03.134Z,7.33
2023-05-19T05:46:03.247Z,7.36
2023-05-19T05:47:03.221Z,7.43
2023-05-19T05:48:03.220Z,7.51
2023-05-19T05:49:03.004Z,7.48
2023-05-19T05:50:03.152Z,7.45
2023-05-19T05:51:03.216Z,7.50
2023-05-19T05:52:06.311Z,7.53
2023-05-19T05:53:04.701Z,7.50
2023-05-19T05:54:03.523Z,7.50
2023-05-19T05:55:03.380Z,7.54
2023-05-19T05:56:03.239Z,7.69
2023-05-19T05:57:04.032Z,7.67
2023-05-19T05:58:03.260Z,7.76
2023-05-19T05:59:03.320Z,7.82
2023-05-19T06:00:03.140Z,7.90
2023-05-19T06:01:03.028Z,7.94
2023-05-19T06:02:03.165Z,7.93
2023-05-19T06:03:03.517Z,7.94
2023-05-19T06:04:03.186Z,8.00
2023-05-19T06:05:03.111Z,8.06
2023-05-19T06:06:03.205Z,8.01
2023-05-19T06:07:03.052Z,8.09
2023-05-19T06:08:03.510Z,8.30
2023-05-19T06:09:03.212Z,8.18
2023-05-19T06:10:02.990Z,8.33
2023-05-19T06:11:03.000Z,8.30
2023-05-19T06:12:02.949Z,8.37
2023-05-19T06:13:03.757Z,8.44
2023-05-19T06:14:02.846Z,8.49
2023-05-19T06:15:02.897Z,8.46
2023-05-19T06:16:03.205Z,8.58
2023-05-19T06:17:02.983Z,8.61
2023-05-19T06:18:02.962Z,8.67
2023-05-19T06:19:03.200Z,8.69
2023-05-19T06:20:02.782Z,8.74
2023-05-19T06:21:03.131Z,8.92
2023-05-19T06:22:02.770Z,9.00
2023-05-19T06:23:02.846Z,9.18
2023-05-19T06:24:02.961Z,9.34
2023-05-19T06:25:03.369Z,9.34
2023-05-19T06:26:03.264Z,9.48
2023-05-19T06:27:02.992Z,9.47
2023-05-19T06:28:03.000Z,9.61
2023-05-19T06:29:03.235Z,9.69
2023-05-19T06:30:03.069Z,9.77
2023-05-19T06:31:03.747Z,9.91
2023-05-19T06:32:02.838Z,9.87
2023-05-19T06:33:03.565Z,10.04
2023-05-19T06:34:03.308Z,10.15
2023-05-19T06:35:03.202Z,10.30
2023-05-19T06:36:03.006Z,10.35
2023-05-19T06:50:32.726Z,11.41
2023-05-19T06:53:10.716Z,11.63
2023-05-19T06:54:12.504Z,11.62
2023-05-19T06:55:10.417Z,11.80
2023-05-19T06:56:26.286Z,11.97
2023-05-19T06:57:54.797Z,12.15
2023-05-19T06:58:13.004Z,12.12
2023-05-19T06:59:13.178Z,12.07
2023-05-19T07:00:32.815Z,12.25
2023-05-19T07:01:26.435Z,12.29
2023-05-19T07:03:16.674Z,12.37
2023-05-19T07:04:04.769Z,12.35
2023-05-19T07:04:24.600Z,12.57
2023-05-19T07:05:23.153Z,12.64
2023-05-19T07:06:25.564Z,12.78
2023-05-19T07:07:24.579Z,12.91
2023-05-19T07:08:24.006Z,12.91
2023-05-19T07:09:26.827Z,13.08
2023-05-19T07:10:28.079Z,12.95
2023-05-19T07:11:49.397Z,12.94
2023-05-19T07:12:28.456Z,12.93
2023-05-19T07:13:38.195Z,13.00
2023-05-19T07:14:38.082Z,13.05
2023-05-19T07:15:24.240Z,13.12
2023-05-19T07:16:23.028Z,13.25
2023-05-19T07:17:23.254Z,13.18
2023-05-19T07:18:23.267Z,13.39
2023-05-19T07:19:24.220Z,13.37
2023-05-19T07:20:23.104Z,13.53
2023-05-19T07:21:23.103Z,13.62
2023-05-19T07:22:22.948Z,13.67
2023-05-19T07:23:59.979Z,13.72
2023-05-19T07:24:59.655Z,13.87
2023-05-19T07:25:25.752Z,14.08
2023-05-19T07:26:22.888Z,14.00
2023-05-19T07:27:57.216Z,14.08
2023-05-19T07:28:23.503Z,14.07
2023-05-19T07:29:55.765Z,14.14
2023-05-19T07:30:24.783Z,14.15
2023-05-19T07:31:23.691Z,14.25
2023-05-19T07:32:28.328Z,14.32
2023-05-19T07:33:24.743Z,14.36
2023-05-19T07:34:30.043Z,14.32
2023-05-19T07:35:50.289Z,14.36
2023-05-19T07:36:49.630Z,14.37
2023-05-19T07:37:24.717Z,14.29
2023-05-19T07:40:37.272Z,14.53
2023-05-19T07:41:37.629Z,14.59
2023-05-19T07:42:37.753Z,14.70
2023-05-19T07:43:37.891Z,14.70
2023-05-19T07:44:37.266Z,14.79
2023-05-19T07:45:37.722Z,14.81
2023-05-19T07:46:50.750Z,14.70
2023-05-19T07:49:10.198Z,14.86
2023-05-19T07:51:37.136Z,14.88
2023-05-19T07:52:53.879Z,15.02
2023-05-19T07:53:50.395Z,15.03
2023-05-19T07:54:38.924Z,14.92
2023-05-19T07:57:04.051Z,15.17
2023-05-19T07:58:05.748Z,15.29
2023-05-19T08:01:57.941Z,15.43
2023-05-19T08:03:07.716Z,15.59
2023-05-19T08:04:09.158Z,15.59
2023-05-19T08:05:08.451Z,15.61
2023-05-19T08:05:59.157Z,15.54
2023-05-19T08:07:25.862Z,15.49
2023-05-19T08:08:32.044Z,15.49
2023-05-19T08:09:01.093Z,15.57
2023-05-19T08:09:59.499Z,15.64
2023-05-19T08:11:33.594Z,15.65
2023-05-19T08:12:04.087Z,15.77
2023-05-19T08:13:00.163Z,15.82
2023-05-19T08:13:59.252Z,15.82
2023-05-19T08:15:34.122Z,15.76
2023-05-19T08:15:59.539Z,15.68
2023-05-19T08:16:59.159Z,15.88
2023-05-19T08:17:59.406Z,15.94
2023-05-19T08:19:31.815Z,15.95
2023-05-19T08:20:05.565Z,15.97
2023-05-19T08:20:59.069Z,16.02
2023-05-19T08:22:33.650Z,16.12
2023-05-19T08:22:59.358Z,16.15
2023-05-19T08:23:59.044Z,16.20
2023-05-19T08:24:58.821Z,16.20
2023-05-19T08:25:59.348Z,16.24
2023-05-19T08:26:58.719Z,16.21
2023-05-19T08:28:00.724Z,16.35
2023-05-19T08:30:58.121Z,16.28
2023-05-19T08:31:57.994Z,16.46
2023-05-19T08:34:26.026Z,16.58
2023-05-19T08:38:10.483Z,16.90
2023-05-19T08:39:21.179Z,17.01
2023-05-19T08:41:38.836Z,17.16
2023-05-19T08:42:54.362Z,17.09
2023-05-19T08:43:39.701Z,17.11
2023-05-19T08:45:15.305Z,17.12
2023-05-19T08:45:54.530Z,17.26
2023-05-19T08:47:11.781Z,17.22
2023-05-19T08:47:41.515Z,17.36
2023-05-19T08:48:40.451Z,17.44
2023-05-19T08:49:46.044Z,17.46
2023-05-19T08:50:40.996Z,17.54
2023-05-19T08:51:39.803Z,17.71
2023-05-19T08:52:40.444Z,17.57
2023-05-19T08:53:44.288Z,17.71
2023-05-19T08:54:41.045Z,17.70
2023-05-19T08:56:17.504Z,17.86
2023-05-19T08:56:46.795Z,17.94
2023-05-19T08:58:13.616Z,17.78
2023-05-19T08:59:20.688Z,17.72
2023-05-19T08:59:42.582Z,17.74
2023-05-19T09:00:41.181Z,17.76
2023-05-19T09:02:09.938Z,17.51
2023-05-19T09:02:54.981Z,17.51
2023-05-19T09:03:43.875Z,17.51
2023-05-19T09:04:42.765Z,17.70
2023-05-19T09:05:40.106Z,17.67
2023-05-19T09:06:40.986Z,17.64
2023-05-19T09:07:41.113Z,17.46
2023-05-19T09:08:45.535Z,17.49
2023-05-19T09:09:49.492Z,17.48
2023-05-19T09:10:41.624Z,17.38
2023-05-19T09:12:14.362Z,17.38
2023-05-19T09:12:39.656Z,17.38
2023-05-19T09:13:39.975Z,17.49
2023-05-19T09:14:43.248Z,17.49
2023-05-19T09:15:40.746Z,17.65
2023-05-19T09:16:40.958Z,17.57
2023-05-19T09:18:12.122Z,17.49
2023-05-19T09:18:44.802Z,17.64
2023-05-19T09:19:40.742Z,17.51
2023-05-19T09:21:13.185Z,17.60
2023-05-19T09:21:39.481Z,17.67
2023-05-19T09:23:13.133Z,17.76
2023-05-19T09:23:45.626Z,17.80
2023-05-19T09:25:16.686Z,17.83
2023-05-19T09:25:42.233Z,17.74
2023-05-19T09:26:39.529Z,17.74
2023-05-19T09:27:39.530Z,17.67
2023-05-19T09:28:45.015Z,17.54
2023-05-19T09:31:53.912Z,17.63
2023-05-19T09:33:01.808Z,17.76
2023-05-19T09:34:27.685Z,17.85
2023-05-19T09:34:57.775Z,18.00
2023-05-19T09:35:54.998Z,18.07
2023-05-19T09:36:56.201Z,17.98
2023-05-19T09:37:54.935Z,17.82
2023-05-19T09:39:04.590Z,17.80
2023-05-19T09:40:30.896Z,17.67
2023-05-19T09:41:09.257Z,17.59
2023-05-19T09:41:57.181Z,17.59
2023-05-19T09:43:24.377Z,17.71
2023-05-19T09:46:00.283Z,17.72
2023-05-19T09:48:56.870Z,17.59
2023-05-19T09:49:04.806Z,17.59
2023-05-19T09:50:43.756Z,17.54
2023-05-19T09:51:05.238Z,17.54
2023-05-19T09:52:36.330Z,17.71
2023-05-19T09:53:02.175Z,17.90
2023-05-19T09:54:01.579Z,17.95
2023-05-19T09:55:01.505Z,18.18
2023-05-19T09:56:33.864Z,18.31
2023-05-19T09:57:01.903Z,18.53
2023-05-19T09:58:26.161Z,18.65
2023-05-19T09:59:03.523Z,18.86
2023-05-19T10:00:01.694Z,19.04
2023-05-19T10:01:02.257Z,19.15
2023-05-19T10:02:08.942Z,19.09
2023-05-19T10:03:01.222Z,18.92
2023-05-19T10:04:08.230Z,18.74
2023-05-19T10:05:02.912Z,18.96
2023-05-19T10:06:01.507Z,18.89
2023-05-19T10:07:02.380Z,19.09
2023-05-19T10:08:02.496Z,19.27
2023-05-19T10:09:01.059Z,19.49
2023-05-19T10:10:01.403Z,19.54
2023-05-19T10:11:05.075Z,19.58
2023-05-19T10:12:03.712Z,19.63
2023-05-19T10:13:02.852Z,19.76
2023-05-19T10:14:03.575Z,19.79
2023-05-19T10:15:38.369Z,19.79
2023-05-19T10:16:03.951Z,19.59
2023-05-19T10:17:02.040Z,19.69
2023-05-19T10:18:01.275Z,19.84
2023-05-19T10:19:03.325Z,20.03
2023-05-19T10:20:01.733Z,20.02
2023-05-19T10:21:02.818Z,20.18
2023-05-19T10:22:35.940Z,20.11
2023-05-19T10:23:05.426Z,20.07
2023-05-19T10:24:01.076Z,20.11
2023-05-19T10:25:00.913Z,20.09
2023-05-19T10:26:01.839Z,20.10
2023-05-19T10:27:03.824Z,20.25
2023-05-19T10:30:05.862Z,20.43
2023-05-19T10:31:11.914Z,20.26
2023-05-19T10:32:13.362Z,20.18
2023-05-19T10:33:17.198Z,20.06
2023-05-19T10:34:41.148Z,20.10
2023-05-19T10:35:08.954Z,20.19
2023-05-19T10:36:06.546Z,20.18
2023-05-19T10:37:10.470Z,20.14
2023-05-19T10:38:08.702Z,19.94
2023-05-19T10:39:23.882Z,20.09
2023-05-19T10:40:07.444Z,20.00
2023-05-19T10:41:07.179Z,19.88
2023-05-19T10:42:06.576Z,19.82
2023-05-19T10:43:06.334Z,19.95
2023-05-19T10:44:07.764Z,20.06
2023-05-19T10:45:07.564Z,20.03
2023-05-19T10:46:07.414Z,20.00
2023-05-19T10:47:07.318Z,20.18
2023-05-19T10:48:06.395Z,20.24
2023-05-19T10:49:06.843Z,20.39
2023-05-19T10:50:41.397Z,20.48
2023-05-19T10:51:45.526Z,20.37
2023-05-19T10:52:10.943Z,20.31
2023-05-19T10:53:05.987Z,20.25
2023-05-19T10:54:06.643Z,20.18
2023-05-19T10:55:07.592Z,20.16
2023-05-19T10:56:09.246Z,20.18
2023-05-19T10:57:07.145Z,20.14
2023-05-19T10:58:06.045Z,20.10
2023-05-19T10:59:45.852Z,20.09
2023-05-19T11:00:10.742Z,20.13
2023-05-19T11:01:07.713Z,20.00
2023-05-19T11:02:06.144Z,20.19
2023-05-19T11:03:06.737Z,20.11
2023-05-19T11:04:06.702Z,20.03
2023-05-19T11:05:06.804Z,19.88
2023-05-19T11:06:08.032Z,20.14
2023-05-19T11:07:05.884Z,20.37
2023-05-19T11:08:06.330Z,20.66
2023-05-19T11:09:06.020Z,20.81
2023-05-19T11:10:39.920Z,21.06
2023-05-19T11:11:07.380Z,21.20
2023-05-19T11:12:05.959Z,21.15
2023-05-19T11:13:14.920Z,21.12
2023-05-19T11:14:09.878Z,21.20
2023-05-19T11:15:06.140Z,21.14
2023-05-19T11:16:07.656Z,20.93
2023-05-19T11:17:06.426Z,20.81
2023-05-19T11:18:40.511Z,20.75
2023-05-19T11:19:10.080Z,20.77
2023-05-19T11:20:05.898Z,20.65
2023-05-19T11:21:06.447Z,20.51
2023-05-19T11:22:08.455Z,20.40
2023-05-19T11:23:08.553Z,20.56
2023-05-19T11:24:05.829Z,20.63
2023-05-19T11:25:43.606Z,20.75
2023-05-19T11:26:06.549Z,20.81
2023-05-19T11:27:39.621Z,20.72
2023-05-19T11:28:05.922Z,20.67
2023-05-19T11:29:08.029Z,20.81
2023-05-19T11:30:06.861Z,20.96
2023-05-19T11:31:06.697Z,21.03
2023-05-19T11:32:05.851Z,21.22
2023-05-19T11:33:15.805Z,21.15
2023-05-19T11:34:33.173Z,21.20
2023-05-19T11:35:07.326Z,21.17
2023-05-19T11:36:42.082Z,21.25
2023-05-19T11:37:06.877Z,21.33
2023-05-19T11:38:05.900Z,21.40
2023-05-19T11:39:16.442Z,21.48
2023-05-19T11:40:06.631Z,21.46
2023-05-19T11:41:06.011Z,21.50
2023-05-19T11:42:32.134Z,21.15
2023-05-19T11:43:05.857Z,21.18
2023-05-19T11:44:09.388Z,21.21
2023-05-19T11:45:05.695Z,21.02
2023-05-19T11:46:06.320Z,20.80
2023-05-19T11:47:07.720Z,20.60
2023-05-19T11:48:07.079Z,20.63
2023-05-19T11:49:07.267Z,20.58
2023-05-19T11:50:06.776Z,20.59
2023-05-19T11:51:07.149Z,20.51
2023-05-19T11:52:06.099Z,20.41
2023-05-19T11:53:05.616Z,20.51
2023-05-19T11:54:05.397Z,20.60
2023-05-19T11:55:42.516Z,20.50
2023-05-19T11:56:08.050Z,20.43
2023-05-19T11:57:05.761Z,20.39
2023-05-19T11:58:07.661Z,20.34
2023-05-19T11:59:06.269Z,20.22
2023-05-19T12:00:40.610Z,20.19
2023-05-19T12:01:10.189Z,20.36
2023-05-19T12:02:08.752Z,20.19
2023-05-19T12:03:09.846Z,20.16
2023-05-19T12:04:05.577Z,20.14
2023-05-19T12:05:05.735Z,20.09
2023-05-19T12:06:07.654Z,20.09
2023-05-19T12:07:05.664Z,20.00
2023-05-19T12:08:05.264Z,19.88
2023-05-19T12:09:06.139Z,19.94
2023-05-19T12:10:05.334Z,19.94
2023-05-19T12:11:39.550Z,19.95
2023-05-19T12:12:06.054Z,20.07
2023-05-19T12:13:09.294Z,20.18
2023-05-19T12:14:05.456Z,20.18
2023-05-19T12:15:05.518Z,20.19
2023-05-19T12:16:05.194Z,20.19
2023-05-19T12:17:20.406Z,20.39
2023-05-19T12:18:06.249Z,20.36
2023-05-19T12:19:05.555Z,20.48
2023-05-19T12:20:05.385Z,20.55
2023-05-19T12:21:05.536Z,20.63
2023-05-19T12:22:06.896Z,20.44
2023-05-19T12:23:05.245Z,20.52
2023-05-19T12:24:37.119Z,20.47
2023-05-19T12:25:17.280Z,20.63
2023-05-19T12:26:06.202Z,20.74
2023-05-19T12:27:05.430Z,20.60
2023-05-19T12:28:07.851Z,20.51
2023-05-19T12:29:05.862Z,20.48
2023-05-19T12:30:16.851Z,20.47
2023-05-19T12:31:06.468Z,20.56
2023-05-19T12:32:06.560Z,20.55
2023-05-19T12:33:06.711Z,20.62
2023-05-19T12:34:06.279Z,20.70
2023-05-19T12:35:05.574Z,20.77
2023-05-19T12:36:04.985Z,20.72
2023-05-19T12:37:07.619Z,20.60
2023-05-19T12:38:05.362Z,20.60
2023-05-19T12:39:18.465Z,20.48
2023-05-19T12:40:06.084Z,20.36
2023-05-19T12:41:09.886Z,20.16
2023-05-19T12:42:05.796Z,20.02
2023-05-19T12:43:09.226Z,20.03
2023-05-19T12:44:05.188Z,19.89
2023-05-19T12:45:04.870Z,20.04
2023-05-19T12:46:06.797Z,20.10
2023-05-19T12:47:07.140Z,20.22
2023-05-19T12:48:04.864Z,20.31
2023-05-19T12:49:04.862Z,20.52
2023-05-19T12:50:04.848Z,20.60
2023-05-19T12:51:06.710Z,20.85
2023-05-19T12:52:11.885Z,20.85
2023-05-19T12:53:08.822Z,20.96
2023-05-19T12:54:05.512Z,21.03
2023-05-19T12:55:05.102Z,20.77
2023-05-19T12:56:22.621Z,20.70
2023-05-19T12:57:06.623Z,20.74
2023-05-19T12:58:07.999Z,20.77
2023-05-19T12:59:05.706Z,20.77
2023-05-19T13:00:12.009Z,20.63
2023-05-19T13:01:07.079Z,20.69
2023-05-19T13:02:06.137Z,20.66
2023-05-19T13:03:06.494Z,20.75
2023-05-19T13:04:06.470Z,20.82
2023-05-19T13:05:10.586Z,21.07
2023-05-19T13:06:04.713Z,21.30
2023-05-19T13:07:06.321Z,21.61
2023-05-19T13:08:05.049Z,21.72
2023-05-19T13:09:04.897Z,21.99
2023-05-19T13:10:04.669Z,22.04
2023-05-19T13:11:08.231Z,22.22
2023-05-19T13:12:10.479Z,22.06
2023-05-19T13:13:04.984Z,21.85
2023-05-19T13:14:05.633Z,21.76
2023-05-19T13:15:12.207Z,21.79
2023-05-19T13:16:44.123Z,21.82
2023-05-19T13:17:05.311Z,21.66
2023-05-19T13:18:04.688Z,21.58
2023-05-19T13:19:06.304Z,21.30
2023-05-19T13:20:05.611Z,21.15
2023-05-19T13:21:06.202Z,21.27
2023-05-19T13:22:05.479Z,21.29
2023-05-19T13:23:04.720Z,21.46
2023-05-19T13:24:06.331Z,21.57
2023-05-19T13:25:05.304Z,21.42
2023-05-19T13:26:06.253Z,21.29
2023-05-19T13:27:05.056Z,21.18
2023-05-19T13:28:08.850Z,21.17
2023-05-19T13:29:05.700Z,21.11
2023-05-19T13:30:08.385Z,20.90
2023-05-19T13:31:06.733Z,20.95
2023-05-19T13:32:07.350Z,20.82
2023-05-19T13:33:12.011Z,20.88
2023-05-19T13:34:05.524Z,20.77
2023-05-19T13:35:04.681Z,20.95
2023-05-19T13:36:06.539Z,20.92
2023-05-19T13:37:04.650Z,20.88
2023-05-19T13:38:04.400Z,21.09
2023-05-19T13:39:06.996Z,21.18
2023-05-19T13:40:05.126Z,21.40
2023-05-19T13:41:04.362Z,21.58
2023-05-19T13:42:04.413Z,21.88
2023-05-19T13:43:05.189Z,22.02
2023-05-19T13:44:05.417Z,22.06
2023-05-19T13:45:04.359Z,21.83
2023-05-19T13:46:10.419Z,22.08
2023-05-19T13:47:05.548Z,22.17
2023-05-19T13:48:06.644Z,22.26
2023-05-19T13:49:04.232Z,22.11
2023-05-19T13:50:07.718Z,21.98
2023-05-19T13:51:04.821Z,22.06
2023-05-19T13:52:04.427Z,21.75
2023-05-19T13:53:04.480Z,21.33
2023-05-19T13:54:05.179Z,21.15
2023-05-19T13:55:13.652Z,20.92
2023-05-19T13:56:06.514Z,20.75
2023-05-19T13:57:07.730Z,20.62
2023-05-19T13:58:04.193Z,20.59
2023-05-19T13:59:04.266Z,20.66
2023-05-19T14:00:04.438Z,20.63
2023-05-19T14:01:12.576Z,20.62